createdAt,value
2024-03-16T00:01:04.595Z,23.71
2024-03-16T00:03:34.036Z,23.61
2024-03-16T00:05:44.308Z,23.49
2024-03-16T00:07:53.652Z,23.43
2024-03-16T00:10:03.559Z,23.45
2024-03-16T00:12:13.802Z,23.45
2024-03-16T00:14:23.430Z,23.40
2024-03-16T00:16:34.490Z,23.30
2024-03-16T00:18:44.525Z,23.23
2024-03-16T00:20:54.030Z,23.18
2024-03-16T00:23:04.057Z,23.18
2024-03-16T00:25:13.769Z,23.18
2024-03-16T00:27:23.642Z,23.19
2024-03-16T00:29:33.298Z,23.19
2024-03-16T00:31:42.664Z,23.19
2024-03-16T00:33:52.512Z,23.20
2024-03-16T00:36:02.697Z,23.18
2024-03-16T00:38:13.072Z,23.16
2024-03-16T00:40:22.856Z,23.12
2024-03-16T00:42:32.410Z,23.06
2024-03-16T00:44:42.000Z,23.05
2024-03-16T00:46:51.460Z,23.08
2024-03-16T00:49:01.316Z,23.06
2024-03-16T00:51:10.873Z,23.02
2024-03-16T00:53:20.391Z,23.01
2024-03-16T00:55:31.138Z,22.98
2024-03-16T00:57:42.099Z,22.93
2024-03-16T00:59:51.928Z,22.87
2024-03-16T01:02:01.718Z,22.81
2024-03-16T01:04:11.527Z,22.76
2024-03-16T01:06:20.996Z,22.70
2024-03-16T01:08:30.618Z,22.64
2024-03-16T01:10:40.266Z,22.58
2024-03-16T01:12:50.277Z,22.54
2024-03-16T01:15:01.209Z,22.51
2024-03-16T01:17:11.104Z,22.46
2024-03-16T01:19:21.261Z,22.41
2024-03-16T01:21:30.614Z,22.36
2024-03-16T01:23:40.146Z,22.32
2024-03-16T01:25:51.697Z,22.25
2024-03-16T01:28:01.239Z,22.16
2024-03-16T01:30:11.930Z,22.08
2024-03-16T01:32:21.607Z,22.01
2024-03-16T01:34:31.582Z,21.94
2024-03-16T01:36:41.096Z,21.87
2024-03-16T01:38:51.807Z,21.82
2024-03-16T01:41:01.648Z,21.76
2024-03-16T01:43:12.274Z,21.69
2024-03-16T01:45:21.804Z,21.60
2024-03-16T01:47:33.718Z,21.52
2024-03-16T01:49:43.509Z,21.43
2024-03-16T01:51:53.347Z,21.34
2024-03-16T01:54:02.941Z,21.27
2024-03-16T01:56:12.364Z,21.19
2024-03-16T01:58:21.883Z,21.11
2024-03-16T02:00:31.760Z,21.03
2024-03-16T02:02:41.733Z,20.96
2024-03-16T02:04:51.340Z,20.88
2024-03-16T02:07:05.624Z,20.80
2024-03-16T02:09:15.184Z,20.73
2024-03-16T02:11:25.867Z,20.66
2024-03-16T02:13:35.465Z,20.60
2024-03-16T02:15:45.271Z,20.53
2024-03-16T02:17:55.514Z,20.45
2024-03-16T02:20:07.199Z,20.38
2024-03-16T02:22:16.700Z,20.31
2024-03-16T02:24:27.286Z,20.21
2024-03-16T02:26:37.896Z,20.06
2024-03-16T02:28:47.551Z,19.90
2024-03-16T02:30:57.862Z,19.77
2024-03-16T02:33:09.269Z,19.61
2024-03-16T02:35:19.975Z,19.49
2024-03-16T02:37:29.515Z,19.38
2024-03-16T02:39:38.759Z,19.29
2024-03-16T02:41:48.464Z,19.20
2024-03-16T02:43:57.909Z,19.08
2024-03-16T02:46:08.225Z,18.96
2024-03-16T02:48:18.128Z,18.86
2024-03-16T02:50:28.170Z,18.76
2024-03-16T02:52:37.585Z,18.62
2024-03-16T02:54:47.475Z,18.47
2024-03-16T02:56:57.106Z,18.35
2024-03-16T02:59:07.848Z,18.23
2024-03-16T03:01:18.629Z,18.11
2024-03-16T03:03:28.358Z,18.03
2024-03-16T03:05:38.272Z,17.95
2024-03-16T03:07:48.278Z,17.85
2024-03-16T03:09:58.271Z,17.72
2024-03-16T03:12:08.198Z,17.58
2024-03-16T03:14:19.079Z,17.44
2024-03-16T03:16:28.906Z,17.33
2024-03-16T03:18:38.661Z,17.23
2024-03-16T03:20:48.796Z,17.10
2024-03-16T03:22:59.641Z,16.98
2024-03-16T03:25:09.309Z,16.87
2024-03-16T03:27:18.918Z,16.79
2024-03-16T03:29:28.377Z,16.71
2024-03-16T03:31:37.917Z,16.60
2024-03-16T03:33:47.967Z,16.50
2024-03-16T03:35:57.933Z,16.41
2024-03-16T03:38:09.682Z,16.35
2024-03-16T03:40:20.363Z,16.30
2024-03-16T03:42:31.619Z,16.24
2024-03-16T03:44:51.915Z,16.23
2024-03-16T03:47:01.668Z,16.24
2024-03-16T03:49:28.138Z,16.24
2024-03-16T03:51:38.096Z,16.23
2024-03-16T03:53:47.710Z,16.21
2024-03-16T03:55:58.039Z,16.17
2024-03-16T03:58:07.585Z,16.13
2024-03-16T04:00:17.667Z,16.09
2024-03-16T04:02:27.610Z,16.04
2024-03-16T04:04:37.688Z,16.00
2024-03-16T04:06:48.674Z,16.01
2024-03-16T04:08:58.156Z,16.05
2024-03-16T04:11:08.957Z,16.08
2024-03-16T04:13:18.981Z,16.08
2024-03-16T04:15:28.786Z,16.04
2024-03-16T04:17:38.611Z,15.96
2024-03-16T04:19:49.252Z,15.88
2024-03-16T04:21:59.234Z,15.78
2024-03-16T04:24:09.402Z,15.67
2024-03-16T04:26:18.934Z,15.57
2024-03-16T04:28:28.355Z,15.46
2024-03-16T04:30:37.985Z,15.35
2024-03-16T04:32:48.143Z,15.23
2024-03-16T04:34:57.630Z,15.12
2024-03-16T04:37:07.280Z,15.01
2024-03-16T04:39:17.528Z,14.94
2024-03-16T04:41:29.403Z,14.92
2024-03-16T04:43:40.297Z,15.01
2024-03-16T04:45:52.022Z,15.12
2024-03-16T04:48:01.655Z,15.14
2024-03-16T04:50:13.730Z,15.11
2024-03-16T04:52:23.665Z,15.14
2024-03-16T04:54:33.013Z,15.15
2024-03-16T04:56:42.772Z,15.12
2024-03-16T04:58:52.385Z,15.06
2024-03-16T05:01:02.214Z,15.01
2024-03-16T05:03:11.881Z,14.94
2024-03-16T05:05:21.732Z,14.86
2024-03-16T05:07:33.305Z,14.79
2024-03-16T05:09:43.099Z,14.73
2024-03-16T05:11:52.865Z,14.70
2024-03-16T05:14:03.618Z,14.70
2024-03-16T05:16:13.536Z,14.68
2024-03-16T05:18:23.368Z,14.66
2024-03-16T05:20:32.958Z,14.64
2024-03-16T05:22:42.726Z,14.66
2024-03-16T05:24:52.204Z,14.70
2024-03-16T05:27:02.217Z,14.76
2024-03-16T05:29:11.707Z,14.87
2024-03-16T05:31:21.285Z,14.99
2024-03-16T05:33:30.790Z,15.13
2024-03-16T05:35:42.863Z,15.23
2024-03-16T05:37:52.168Z,15.32
2024-03-16T05:40:01.808Z,15.41
2024-03-16T05:42:13.408Z,15.50
2024-03-16T05:44:22.706Z,15.62
2024-03-16T05:46:32.856Z,15.76
2024-03-16T05:48:43.016Z,15.84
2024-03-16T05:50:55.720Z,15.91
2024-03-16T05:53:05.762Z,15.98
2024-03-16T05:55:17.650Z,16.01
2024-03-16T05:57:27.416Z,16.02
2024-03-16T05:59:36.927Z,15.99
2024-03-16T06:01:47.207Z,16.00
2024-03-16T06:03:57.328Z,16.02
2024-03-16T06:06:07.481Z,16.04
2024-03-16T06:08:17.584Z,16.06
2024-03-16T06:10:27.070Z,16.07
2024-03-16T06:12:36.725Z,16.08
2024-03-16T06:14:46.106Z,16.08
2024-03-16T06:16:56.009Z,16.10
2024-03-16T06:19:06.293Z,16.06
2024-03-16T06:21:16.436Z,16.02
2024-03-16T06:23:26.130Z,16.00
2024-03-16T06:27:55.149Z,16.09
2024-03-16T06:30:05.425Z,16.18
2024-03-16T06:32:22.158Z,16.25
2024-03-16T06:34:31.691Z,16.24
2024-03-16T06:36:41.505Z,16.21
2024-03-16T06:38:51.319Z,16.16
2024-03-16T06:41:01.697Z,16.15
2024-03-16T06:43:11.246Z,16.16
2024-03-16T06:45:21.088Z,16.22
2024-03-16T06:47:30.417Z,16.29
2024-03-16T06:49:39.944Z,16.31
2024-03-16T06:51:49.647Z,16.27
2024-03-16T06:53:59.832Z,16.22
2024-03-16T06:56:11.616Z,16.17
2024-03-16T06:58:21.543Z,16.12
2024-03-16T07:00:32.015Z,16.09
2024-03-16T07:02:41.499Z,16.04
2024-03-16T07:04:51.258Z,16.02
2024-03-16T07:07:00.747Z,15.98
2024-03-16T07:09:12.289Z,15.93
2024-03-16T07:11:22.366Z,15.91
2024-03-16T07:13:31.669Z,15.86
2024-03-16T07:15:41.428Z,15.80
2024-03-16T07:17:50.854Z,15.74
2024-03-16T07:20:00.367Z,15.69
2024-03-16T07:22:10.634Z,15.64
2024-03-16T07:24:20.854Z,15.57
2024-03-16T07:26:30.558Z,15.53
2024-03-16T07:28:40.836Z,15.49
2024-03-16T07:30:50.766Z,15.46
2024-03-16T07:33:00.686Z,15.44
2024-03-16T07:35:10.181Z,15.45
2024-03-16T07:37:20.165Z,15.45
2024-03-16T07:39:29.729Z,15.44
2024-03-16T07:41:39.130Z,15.44
2024-03-16T07:43:48.924Z,15.43
2024-03-16T07:45:58.438Z,15.40
2024-03-16T07:48:08.496Z,15.40
2024-03-16T07:50:18.030Z,15.38
2024-03-16T07:52:29.052Z,15.34
2024-03-16T07:54:39.129Z,15.30
2024-03-16T07:56:50.834Z,15.29
2024-03-16T07:59:01.111Z,15.24
2024-03-16T08:01:12.240Z,15.23
2024-03-16T08:03:21.938Z,15.23
2024-03-16T08:05:32.627Z,15.23
2024-03-16T08:07:43.651Z,15.24
2024-03-16T08:09:53.589Z,15.23
2024-03-16T08:12:03.090Z,15.22
2024-03-16T08:14:13.214Z,15.20
2024-03-16T08:16:23.415Z,15.16
2024-03-16T08:18:32.922Z,15.11
2024-03-16T08:20:43.366Z,15.05
2024-03-16T08:22:56.009Z,15.00
2024-03-16T08:25:05.897Z,14.99
2024-03-16T08:27:15.471Z,15.01
2024-03-16T08:29:25.294Z,15.03
2024-03-16T08:31:35.217Z,15.05
2024-03-16T08:33:44.815Z,15.11
2024-03-16T08:35:54.598Z,15.15
2024-03-16T08:38:04.002Z,15.19
2024-03-16T08:40:15.679Z,15.25
2024-03-16T08:42:25.595Z,15.26
2024-03-16T08:44:36.894Z,15.28
2024-03-16T08:46:46.764Z,15.27
2024-03-16T08:48:56.521Z,15.26
2024-03-16T08:51:06.474Z,15.23
2024-03-16T08:53:16.131Z,15.22
2024-03-16T08:55:27.482Z,15.21
2024-03-16T08:57:37.702Z,15.22
2024-03-16T08:59:47.831Z,15.25
2024-03-16T09:01:57.352Z,15.30
2024-03-16T09:04:08.068Z,15.33
2024-03-16T09:06:17.681Z,15.32
2024-03-16T09:08:27.403Z,15.29
2024-03-16T09:10:37.436Z,15.23
2024-03-16T09:12:48.990Z,15.16
2024-03-16T09:14:58.989Z,15.15
2024-03-16T09:17:09.211Z,15.15
2024-03-16T09:19:18.858Z,15.14
2024-03-16T09:21:28.419Z,15.13
2024-03-16T09:23:38.925Z,15.10
2024-03-16T09:25:55.942Z,15.07
2024-03-16T09:28:05.327Z,15.05
2024-03-16T09:30:16.761Z,15.03
2024-03-16T09:32:26.268Z,15.03
2024-03-16T09:34:36.319Z,15.05
2024-03-16T09:36:46.476Z,15.08
2024-03-16T09:38:56.007Z,15.10
2024-03-16T09:41:06.379Z,15.10
2024-03-16T09:43:16.909Z,15.09
2024-03-16T09:45:27.421Z,15.09
2024-03-16T09:47:37.557Z,15.11
2024-03-16T09:49:49.601Z,15.13
2024-03-16T09:52:01.326Z,15.17
2024-03-16T09:54:13.118Z,15.21
2024-03-16T09:56:23.040Z,15.26
2024-03-16T09:58:32.658Z,15.33
2024-03-16T10:00:45.976Z,15.41
2024-03-16T10:02:55.448Z,15.47
2024-03-16T10:05:06.949Z,15.50
2024-03-16T10:07:16.767Z,15.59
2024-03-16T10:09:27.708Z,15.66
2024-03-16T10:11:38.042Z,15.69
2024-03-16T10:13:56.567Z,15.70
2024-03-16T10:16:06.463Z,15.69
2024-03-16T10:18:17.086Z,15.66
2024-03-16T10:20:26.682Z,15.62
2024-03-16T10:22:36.798Z,15.59
2024-03-16T10:24:46.267Z,15.56
2024-03-16T10:26:55.980Z,15.53
2024-03-16T10:29:06.084Z,15.58
2024-03-16T10:31:15.887Z,15.61
2024-03-16T10:33:26.739Z,15.66
2024-03-16T10:35:36.974Z,15.74
2024-03-16T10:37:50.547Z,15.82
2024-03-16T10:40:01.361Z,15.89
2024-03-16T10:42:17.829Z,15.92
2024-03-16T10:44:28.500Z,15.94
2024-03-16T10:46:37.878Z,15.94
2024-03-16T10:48:47.253Z,15.94
2024-03-16T10:50:57.586Z,15.96
2024-03-16T10:53:08.420Z,15.97
2024-03-16T10:55:24.230Z,16.00
2024-03-16T10:57:34.464Z,16.05
2024-03-16T10:59:45.996Z,16.06
2024-03-16T11:01:57.179Z,16.07
2024-03-16T11:04:08.687Z,16.09
2024-03-16T11:06:23.608Z,16.16
2024-03-16T11:08:43.918Z,16.20
2024-03-16T11:10:54.670Z,16.30
2024-03-16T11:13:17.489Z,16.39
2024-03-16T11:15:42.910Z,16.47
2024-03-16T11:17:52.790Z,16.47
2024-03-16T11:20:15.689Z,16.47
2024-03-16T11:22:26.000Z,16.43
2024-03-16T11:24:36.057Z,16.40
2024-03-16T11:26:46.479Z,16.38
2024-03-16T11:28:57.307Z,16.38
2024-03-16T11:31:31.885Z,16.34
2024-03-16T11:33:43.179Z,16.26
2024-03-16T11:35:53.208Z,16.22
2024-03-16T11:38:02.531Z,16.15
2024-03-16T11:40:13.920Z,16.12
2024-03-16T11:42:23.451Z,16.06
2024-03-16T11:44:32.850Z,16.00
2024-03-16T11:46:43.467Z,15.92
2024-03-16T11:48:52.951Z,15.81
2024-03-16T11:51:02.881Z,15.72
2024-03-16T11:53:12.802Z,15.60
2024-03-16T11:55:23.424Z,15.50
2024-03-16T11:57:32.733Z,15.38
2024-03-16T11:59:42.602Z,15.32
2024-03-16T12:01:53.350Z,15.28
2024-03-16T12:04:03.740Z,15.27
2024-03-16T12:06:13.502Z,15.26
2024-03-16T12:08:22.878Z,15.24
2024-03-16T12:10:34.215Z,15.20
2024-03-16T12:12:45.391Z,15.16
2024-03-16T12:15:08.580Z,15.12
2024-03-16T12:17:18.023Z,15.09
2024-03-16T12:19:27.381Z,15.05
2024-03-16T12:21:37.055Z,15.00
2024-03-16T12:23:50.641Z,14.94
2024-03-16T12:26:00.860Z,14.89
2024-03-16T12:28:10.536Z,14.88
2024-03-16T12:30:20.322Z,14.89
2024-03-16T12:32:30.005Z,14.89
2024-03-16T12:34:41.201Z,14.88
2024-03-16T12:36:51.173Z,14.87
2024-03-16T12:39:00.676Z,14.86
2024-03-16T12:41:10.852Z,14.84
2024-03-16T12:43:21.323Z,14.84
2024-03-16T12:45:30.791Z,14.84
2024-03-16T12:47:40.561Z,14.82
2024-03-16T12:49:50.930Z,14.81
2024-03-16T12:52:00.504Z,14.80
2024-03-16T12:54:11.048Z,14.78
2024-03-16T12:56:20.763Z,14.74
2024-03-16T12:58:30.374Z,14.72
2024-03-16T13:00:40.013Z,14.71
2024-03-16T13:02:49.765Z,14.69
2024-03-16T13:04:59.851Z,14.70
2024-03-16T13:07:09.864Z,14.71
2024-03-16T13:09:19.316Z,14.71
2024-03-16T13:11:29.099Z,14.69
2024-03-16T13:13:38.901Z,14.67
2024-03-16T13:15:48.682Z,14.64
2024-03-16T13:17:58.387Z,14.63
2024-03-16T13:20:11.014Z,14.63
2024-03-16T13:22:20.684Z,14.61
2024-03-16T13:24:30.208Z,14.60
2024-03-16T13:26:39.821Z,14.60
2024-03-16T13:28:49.490Z,14.62
2024-03-16T13:30:59.699Z,14.61
2024-03-16T13:33:10.519Z,14.60
2024-03-16T13:35:20.688Z,14.57
2024-03-16T13:37:31.294Z,14.54
2024-03-16T13:39:41.019Z,14.52
2024-03-16T13:41:51.068Z,14.51
2024-03-16T13:44:01.028Z,14.48
2024-03-16T13:46:14.798Z,14.49
2024-03-16T13:48:26.024Z,14.51
2024-03-16T13:50:35.610Z,14.48
2024-03-16T13:52:45.310Z,14.46
2024-03-16T13:54:54.719Z,14.47
2024-03-16T13:57:04.690Z,14.48
2024-03-16T13:59:14.342Z,14.50
2024-03-16T14:01:24.146Z,14.48
2024-03-16T14:03:33.559Z,14.47
2024-03-16T14:05:43.019Z,14.49
2024-03-16T14:07:52.369Z,14.50
2024-03-16T14:10:03.146Z,14.51
2024-03-16T14:12:12.691Z,14.54
2024-03-16T14:14:21.900Z,14.58
2024-03-16T14:16:31.378Z,14.60
2024-03-16T14:18:40.826Z,14.63
2024-03-16T14:20:50.060Z,14.64
2024-03-16T14:22:59.551Z,14.63
2024-03-16T14:25:09.376Z,14.64
2024-03-16T14:27:18.669Z,14.67
2024-03-16T14:29:28.441Z,14.70
2024-03-16T14:31:38.398Z,14.74
2024-03-16T14:33:47.694Z,14.74
2024-03-16T14:35:57.575Z,14.75
2024-03-16T14:38:07.619Z,14.77
2024-03-16T14:40:24.038Z,14.78
2024-03-16T14:42:33.580Z,14.78
2024-03-16T14:44:42.978Z,14.82
2024-03-16T14:46:53.139Z,14.84
2024-03-16T14:49:03.176Z,14.83
2024-03-16T14:51:12.600Z,14.79
2024-03-16T14:53:21.999Z,14.76
2024-03-16T14:55:31.560Z,14.74
2024-03-16T14:57:41.021Z,14.74
2024-03-16T14:59:50.430Z,14.73
2024-03-16T15:02:00.513Z,14.69
2024-03-16T15:04:10.006Z,14.67
2024-03-16T15:06:19.707Z,14.65
2024-03-16T15:08:29.179Z,14.65
2024-03-16T15:10:38.525Z,14.64
2024-03-16T15:12:48.151Z,14.65
2024-03-16T15:14:57.772Z,14.67
2024-03-16T15:17:07.298Z,14.68
2024-03-16T15:19:17.379Z,14.70
2024-03-16T15:21:27.482Z,14.73
2024-03-16T15:23:36.976Z,14.76
2024-03-16T15:26:03.889Z,14.84
2024-03-16T15:28:15.316Z,14.91
2024-03-16T15:30:26.043Z,14.96
2024-03-16T15:32:36.722Z,15.02
2024-03-16T15:34:46.175Z,15.03
2024-03-16T15:36:55.942Z,15.05
2024-03-16T15:39:06.300Z,15.08
2024-03-16T15:41:16.877Z,15.09
2024-03-16T15:43:26.471Z,15.12
2024-03-16T15:47:19.550Z,15.20
2024-03-16T15:49:33.061Z,15.21
2024-03-16T15:51:45.097Z,15.24
2024-03-16T15:53:59.396Z,15.29
2024-03-16T15:56:15.013Z,15.33
2024-03-16T15:58:28.947Z,15.40
2024-03-16T16:00:43.066Z,15.45
2024-03-16T16:02:57.595Z,15.52
2024-03-16T16:05:14.417Z,15.63
2024-03-16T16:07:26.590Z,15.74
2024-03-16T16:09:38.910Z,15.83
2024-03-16T16:11:51.773Z,15.93
2024-03-16T16:14:05.234Z,15.99
2024-03-16T16:16:17.370Z,16.05
2024-03-16T16:18:29.562Z,16.11
2024-03-16T16:20:41.830Z,16.17
2024-03-16T16:22:55.645Z,16.23
2024-03-16T16:25:08.827Z,16.27
2024-03-16T16:27:21.980Z,16.31
2024-03-16T16:29:33.913Z,16.36
2024-03-16T16:31:45.904Z,16.41
2024-03-16T16:33:55.737Z,16.47
2024-03-16T16:36:08.286Z,16.52
2024-03-16T16:38:20.468Z,16.59
2024-03-16T16:40:32.549Z,16.66
2024-03-16T16:42:45.106Z,16.73
2024-03-16T16:44:57.329Z,16.79
2024-03-16T16:47:06.875Z,16.88
2024-03-16T16:49:18.988Z,16.93
2024-03-16T16:51:31.059Z,16.98
2024-03-16T16:53:43.457Z,17.05
2024-03-16T16:55:55.942Z,17.14
2024-03-16T16:58:07.998Z,17.20
2024-03-16T17:00:22.745Z,17.26
2024-03-16T17:02:36.764Z,17.34
2024-03-16T17:04:49.218Z,17.41
2024-03-16T17:07:01.852Z,17.49
2024-03-16T17:09:13.708Z,17.58
2024-03-16T17:11:26.476Z,17.66
2024-03-16T17:13:40.498Z,17.74
2024-03-16T17:15:52.438Z,17.82
2024-03-16T17:18:06.751Z,17.89
2024-03-16T17:20:27.357Z,17.94
2024-03-16T17:22:39.550Z,18.01
2024-03-16T17:24:51.929Z,18.07
2024-03-16T17:27:03.256Z,18.14
2024-03-16T17:29:17.200Z,18.24
2024-03-16T17:31:29.346Z,18.32
2024-03-16T17:33:41.612Z,18.41
2024-03-16T17:35:54.231Z,18.50
2024-03-16T17:38:10.774Z,18.57
2024-03-16T17:40:23.010Z,18.64
2024-03-16T17:42:35.610Z,18.72
2024-03-16T17:44:47.557Z,18.78
2024-03-16T17:46:59.527Z,18.85
2024-03-16T17:49:12.280Z,18.92
2024-03-16T17:51:24.470Z,18.97
2024-03-16T17:53:36.864Z,19.05
2024-03-16T17:55:49.711Z,19.12
2024-03-16T17:58:01.993Z,19.18
2024-03-16T18:00:17.018Z,19.25
2024-03-16T18:02:29.420Z,19.32
2024-03-16T18:04:38.901Z,19.39
2024-03-16T18:06:51.759Z,19.44
2024-03-16T18:09:05.902Z,19.49
2024-03-16T18:11:17.801Z,19.56
2024-03-16T18:13:29.864Z,19.64
2024-03-16T18:15:42.650Z,19.73
2024-03-16T18:18:01.225Z,19.78
2024-03-16T18:20:21.967Z,19.84
2024-03-16T18:22:35.140Z,19.89
2024-03-16T18:24:51.393Z,19.96
2024-03-16T18:27:03.872Z,20.04
2024-03-16T18:29:16.470Z,20.10
2024-03-16T18:31:29.133Z,20.18
2024-03-16T18:33:41.610Z,20.24
2024-03-16T18:35:54.108Z,20.30
2024-03-16T18:38:07.197Z,20.37
2024-03-16T18:40:22.809Z,20.44
2024-03-16T18:42:36.291Z,20.50
2024-03-16T18:44:48.716Z,20.57
2024-03-16T18:47:02.718Z,20.65
2024-03-16T18:49:15.286Z,20.72
2024-03-16T18:51:28.780Z,20.80
2024-03-16T18:53:41.434Z,20.85
2024-03-16T18:55:54.488Z,20.95
2024-03-16T18:58:07.924Z,21.02
2024-03-16T19:00:24.456Z,21.05
2024-03-16T19:02:45.042Z,21.12
2024-03-16T19:05:00.883Z,21.19
2024-03-16T19:07:13.618Z,21.28
2024-03-16T19:09:27.261Z,21.36
2024-03-16T19:11:39.999Z,21.40
2024-03-16T19:13:55.056Z,21.48
2024-03-16T19:16:08.290Z,21.56
2024-03-16T19:18:20.798Z,21.65
2024-03-16T19:20:33.843Z,21.72
2024-03-16T19:22:46.949Z,21.79
2024-03-16T19:25:00.397Z,21.82
2024-03-16T19:27:13.707Z,21.86
2024-03-16T19:29:26.609Z,21.92
2024-03-16T19:31:40.156Z,22.01
2024-03-16T19:33:52.686Z,22.12
2024-03-16T19:36:05.452Z,22.21
2024-03-16T19:38:18.308Z,22.29
2024-03-16T19:40:31.155Z,22.34
2024-03-16T19:42:43.717Z,22.37
2024-03-16T19:44:56.753Z,22.39
2024-03-16T19:47:09.656Z,22.39
2024-03-16T19:49:22.130Z,22.35
2024-03-16T19:51:34.735Z,22.37
2024-03-16T19:53:47.161Z,22.44
2024-03-16T19:56:00.353Z,22.53
2024-03-16T19:58:13.453Z,22.61
2024-03-16T20:00:27.725Z,22.73
2024-03-16T20:38:06.046Z,23.24
2024-03-16T20:40:20.033Z,23.20
2024-03-16T20:42:35.629Z,23.13
2024-03-16T20:44:48.178Z,23.06
2024-03-16T20:47:01.543Z,23.03
2024-03-16T20:49:14.736Z,23.02
2024-03-16T20:51:27.567Z,22.97
2024-03-16T20:53:40.388Z,22.91
2024-03-16T20:55:53.366Z,22.88
2024-03-16T20:58:06.137Z,22.85
2024-03-16T21:00:19.598Z,22.79
2024-03-16T21:02:32.980Z,22.72
2024-03-16T21:04:45.703Z,22.68
2024-03-16T21:06:58.339Z,22.69
2024-03-16T21:09:11.316Z,22.70
2024-03-16T21:11:27.189Z,22.70
2024-03-16T21:13:40.274Z,22.70
2024-03-16T21:15:52.711Z,22.66
2024-03-16T21:18:05.273Z,22.63
2024-03-16T21:20:19.280Z,22.63
2024-03-16T21:22:34.466Z,22.67
2024-03-16T21:24:47.202Z,22.69
2024-03-16T21:26:59.708Z,22.67
2024-03-16T21:29:12.091Z,22.67
2024-03-16T21:31:28.858Z,22.66
2024-03-16T21:33:41.522Z,22.67
2024-03-16T21:35:54.316Z,22.69
2024-03-16T21:38:07.022Z,22.71
2024-03-16T21:40:20.939Z,22.70
2024-03-16T21:42:33.899Z,22.69
2024-03-16T21:44:46.601Z,22.66
2024-03-16T21:46:59.059Z,22.63
2024-03-16T21:49:11.551Z,22.63
2024-03-16T21:51:24.461Z,22.60
2024-03-16T21:53:38.249Z,22.56
2024-03-16T21:55:51.791Z,22.56
2024-03-16T21:58:05.475Z,22.60
2024-03-16T22:00:19.530Z,22.60
2024-03-16T22:02:32.476Z,22.61
2024-03-16T22:04:47.590Z,22.58
2024-03-16T22:07:00.046Z,22.53
2024-03-16T22:09:12.662Z,22.43
2024-03-16T22:11:25.199Z,22.40
2024-03-16T22:13:38.270Z,22.39
2024-03-16T22:15:50.752Z,22.38
2024-03-16T22:18:03.676Z,22.46
2024-03-16T22:20:17.531Z,22.49
2024-03-16T22:22:30.140Z,22.53
2024-03-16T22:24:42.780Z,22.59
2024-03-16T22:26:55.173Z,22.64
2024-03-16T22:29:08.689Z,22.65
2024-03-16T22:31:22.220Z,22.64
2024-03-16T22:33:34.846Z,22.57
2024-03-16T22:35:47.480Z,22.51
2024-03-16T22:37:59.967Z,22.52
2024-03-16T22:40:14.283Z,22.47
2024-03-16T22:42:27.220Z,22.28
2024-03-16T22:44:40.540Z,22.14
2024-03-16T22:46:53.000Z,22.04
2024-03-16T22:49:05.402Z,22.01
2024-03-16T22:51:18.074Z,21.95
2024-03-16T22:53:30.809Z,21.92
2024-03-16T22:55:43.270Z,21.89
2024-03-16T22:57:55.743Z,21.85
2024-03-16T23:00:11.408Z,21.83
2024-03-16T23:02:23.828Z,21.83
2024-03-16T23:04:36.350Z,21.79
2024-03-16T23:06:49.325Z,21.66
2024-03-16T23:09:02.614Z,21.61
2024-03-16T23:11:16.100Z,21.56
2024-03-16T23:13:29.313Z,21.56
2024-03-16T23:15:42.788Z,21.54
2024-03-16T23:17:55.399Z,21.52
2024-03-16T23:20:08.476Z,21.49
2024-03-16T23:22:21.711Z,21.47
2024-03-16T23:24:34.495Z,21.39
2024-03-16T23:26:47.168Z,21.35
2024-03-16T23:29:00.209Z,21.34
2024-03-16T23:31:13.357Z,21.30
2024-03-16T23:33:26.094Z,21.22
2024-03-16T23:37:53.138Z,21.20
2024-03-16T23:40:09.984Z,21.19
2024-03-16T23:42:26.772Z,21.21
2024-03-16T23:44:39.458Z,21.22
2024-03-16T23:46:52.774Z,21.25
2024-03-16T23:49:05.323Z,21.22
2024-03-16T23:51:17.801Z,21.19
2024-03-16T23:53:30.319Z,21.14
2024-03-16T23:55:42.720Z,21.03
2024-03-16T23:57:56.366Z,20.97
